TRA5959 LPMA-LPFR
Flight info
| Callsign | TRA5959 |
|---|---|
| Flight time | 1h 27m |
| Altitude | 36000 |
| Route | DEGUN DCT NARTA DCT GIMAL |
| Aircraft | B738/M-SDE2E3FGHIRWXY/LB1 |
Departure
| Time | 2026-05-05 19:51 |
|---|---|
| Airport | Cristiano Ronaldo International Airport (LPMA) |
Arrival
| Time | 2026-05-05 21:19 |
|---|---|
| Airport | Faro - Gago Coutinho International Airport (LPFR) |
| Time | Latitude | Longitude | Altitude | Speed | Heading |
|---|---|---|---|---|---|
| 2026-05-05 19:25 | 32.69262 | -16.77800 | 175 ft | 0 kts | 137° |
| 2026-05-05 19:41 | 32.69271 | -16.77809 | 175 ft | 4 kts | 131° |
| 2026-05-05 19:41 | 32.69285 | -16.77824 | 175 ft | 4 kts | 139° |
| 2026-05-05 19:42 | 32.69304 | -16.77843 | 175 ft | 1 kts | 139° |
| 2026-05-05 19:42 | 32.69308 | -16.77847 | 175 ft | 0 kts | 139° |
| 2026-05-05 19:45 | 32.69304 | -16.77847 | 175 ft | 1 kts | 168° |
| 2026-05-05 19:45 | 32.69298 | -16.77862 | 175 ft | 0 kts | 245° |
| 2026-05-05 19:49 | 32.69295 | -16.77870 | 175 ft | 6 kts | 248° |
| 2026-05-05 19:49 | 32.69283 | -16.78015 | 175 ft | 21 kts | 258° |
| 2026-05-05 19:49 | 32.69166 | -16.78176 | 175 ft | 31 kts | 224° |
| 2026-05-05 19:50 | 32.69034 | -16.78329 | 175 ft | 26 kts | 224° |
| 2026-05-05 19:50 | 32.68982 | -16.78448 | 175 ft | 10 kts | 211° |
| 2026-05-05 19:50 | 32.68959 | -16.78407 | 175 ft | 8 kts | 50° |
| 2026-05-05 19:50 | 32.69036 | -16.78327 | 175 ft | 28 kts | 44° |
| 2026-05-05 19:51 | 32.69356 | -16.77955 | 175 ft | 101 kts | 44° |
| 2026-05-05 19:51 | 32.70017 | -16.77188 | 189 ft | 161 kts | 44° |
| 2026-05-05 19:51 | 32.70878 | -16.76170 | 619 ft | 186 kts | 46° |
| 2026-05-05 19:51 | 32.71614 | -16.74794 | 1023 ft | 213 kts | 72° |
| 2026-05-05 19:52 | 32.71902 | -16.72994 | 1421 ft | 232 kts | 90° |
| 2026-05-05 19:52 | 32.71576 | -16.71066 | 1942 ft | 247 kts | 110° |
| 2026-05-05 19:52 | 32.70868 | -16.69142 | 2653 ft | 259 kts | 117° |
| 2026-05-05 19:52 | 32.70026 | -16.67231 | 3569 ft | 263 kts | 117° |
| 2026-05-05 19:53 | 32.69208 | -16.65279 | 4509 ft | 266 kts | 116° |
| 2026-05-05 19:53 | 32.68392 | -16.63298 | 5397 ft | 269 kts | 116° |
| 2026-05-05 19:53 | 32.67569 | -16.61286 | 6278 ft | 273 kts | 116° |
| 2026-05-05 19:53 | 32.66734 | -16.59246 | 7145 ft | 276 kts | 116° |
| 2026-05-05 19:54 | 32.66165 | -16.57854 | 7729 ft | 279 kts | 115° |
| 2026-05-05 19:54 | 32.65675 | -16.55631 | 8522 ft | 283 kts | 89° |
| 2026-05-05 19:54 | 32.66163 | -16.53379 | 9352 ft | 285 kts | 60° |
| 2026-05-05 19:54 | 32.67399 | -16.51535 | 10172 ft | 288 kts | 45° |
| 2026-05-05 19:55 | 32.68871 | -16.49820 | 10585 ft | 308 kts | 43° |
| 2026-05-05 19:55 | 32.70492 | -16.48007 | 10837 ft | 331 kts | 43° |
| 2026-05-05 19:55 | 32.72197 | -16.46113 | 11455 ft | 339 kts | 43° |
| 2026-05-05 19:55 | 32.73928 | -16.44180 | 12235 ft | 343 kts | 43° |
| 2026-05-05 19:56 | 32.75667 | -16.42227 | 13019 ft | 345 kts | 43° |
| 2026-05-05 19:56 | 32.77416 | -16.40249 | 13760 ft | 349 kts | 43° |
| 2026-05-05 19:56 | 32.79183 | -16.38243 | 14475 ft | 353 kts | 43° |
| 2026-05-05 19:56 | 32.80966 | -16.36210 | 15179 ft | 357 kts | 44° |
| 2026-05-05 19:57 | 32.82767 | -16.34154 | 15876 ft | 361 kts | 44° |
| 2026-05-05 19:57 | 32.84586 | -16.32073 | 16553 ft | 364 kts | 44° |
| 2026-05-05 19:57 | 32.86422 | -16.29971 | 17213 ft | 368 kts | 44° |
| 2026-05-05 19:57 | 32.88273 | -16.27850 | 17855 ft | 372 kts | 44° |
| 2026-05-05 19:58 | 32.90144 | -16.25703 | 18487 ft | 375 kts | 44° |
| 2026-05-05 19:58 | 32.92033 | -16.23536 | 19098 ft | 379 kts | 44° |
| 2026-05-05 19:58 | 32.93937 | -16.21349 | 19697 ft | 382 kts | 44° |
| 2026-05-05 19:58 | 32.95859 | -16.19141 | 20279 ft | 386 kts | 44° |
| 2026-05-05 19:59 | 32.97798 | -16.16910 | 20848 ft | 389 kts | 44° |
| 2026-05-05 19:59 | 32.99752 | -16.14662 | 21400 ft | 392 kts | 44° |
| 2026-05-05 19:59 | 33.01726 | -16.12390 | 21938 ft | 396 kts | 44° |
| 2026-05-05 19:59 | 33.03710 | -16.10104 | 22459 ft | 399 kts | 44° |
| 2026-05-05 20:00 | 33.05714 | -16.07793 | 22967 ft | 402 kts | 44° |
| 2026-05-05 20:00 | 33.07732 | -16.05465 | 23463 ft | 405 kts | 44° |
| 2026-05-05 20:00 | 33.09763 | -16.03120 | 23937 ft | 408 kts | 44° |
| 2026-05-05 20:00 | 33.11810 | -16.00755 | 24406 ft | 411 kts | 44° |
| 2026-05-05 20:01 | 33.13872 | -15.98372 | 24863 ft | 414 kts | 44° |
| 2026-05-05 20:01 | 33.15947 | -15.95971 | 25300 ft | 417 kts | 44° |
| 2026-05-05 20:01 | 33.18036 | -15.93552 | 25728 ft | 420 kts | 44° |
| 2026-05-05 20:01 | 33.20136 | -15.91120 | 26143 ft | 422 kts | 44° |
| 2026-05-05 20:02 | 33.22252 | -15.88666 | 26547 ft | 425 kts | 44° |
| 2026-05-05 20:02 | 33.24380 | -15.86198 | 26937 ft | 428 kts | 44° |
| 2026-05-05 20:02 | 33.26518 | -15.83716 | 27321 ft | 430 kts | 44° |
| 2026-05-05 20:02 | 33.28672 | -15.81213 | 27691 ft | 433 kts | 44° |
| 2026-05-05 20:03 | 33.30836 | -15.78697 | 28052 ft | 435 kts | 44° |
| 2026-05-05 20:03 | 33.33011 | -15.76166 | 28400 ft | 438 kts | 44° |
| 2026-05-05 20:03 | 33.35198 | -15.73618 | 28746 ft | 440 kts | 44° |
| 2026-05-05 20:03 | 33.37394 | -15.71059 | 29077 ft | 442 kts | 44° |
| 2026-05-05 20:04 | 33.39604 | -15.68483 | 29399 ft | 445 kts | 44° |
| 2026-05-05 20:04 | 33.41824 | -15.65892 | 29712 ft | 447 kts | 44° |
| 2026-05-05 20:04 | 33.44072 | -15.63309 | 30021 ft | 449 kts | 43° |
| 2026-05-05 20:04 | 33.46349 | -15.60742 | 30305 ft | 451 kts | 43° |
| 2026-05-05 20:05 | 33.48644 | -15.58175 | 30586 ft | 453 kts | 43° |
| 2026-05-05 20:05 | 33.50923 | -15.55629 | 30863 ft | 455 kts | 43° |
| 2026-05-05 20:05 | 33.53234 | -15.53042 | 31224 ft | 454 kts | 43° |
| 2026-05-05 20:05 | 33.55535 | -15.50459 | 31642 ft | 452 kts | 43° |
| 2026-05-05 20:06 | 33.57823 | -15.47884 | 32037 ft | 450 kts | 43° |
| 2026-05-05 20:06 | 33.60105 | -15.45310 | 32369 ft | 450 kts | 43° |
| 2026-05-05 20:06 | 33.62385 | -15.42735 | 32674 ft | 450 kts | 43° |
| 2026-05-05 20:06 | 33.64663 | -15.40159 | 33020 ft | 450 kts | 43° |
| 2026-05-05 20:07 | 33.66937 | -15.37585 | 33369 ft | 448 kts | 43° |
| 2026-05-05 20:07 | 33.69201 | -15.35022 | 33688 ft | 448 kts | 43° |
| 2026-05-05 20:07 | 33.71467 | -15.32453 | 33980 ft | 448 kts | 43° |
| 2026-05-05 20:07 | 33.73729 | -15.29887 | 34284 ft | 447 kts | 43° |
| 2026-05-05 20:08 | 33.75987 | -15.27324 | 34594 ft | 446 kts | 43° |
| 2026-05-05 20:08 | 33.78239 | -15.24766 | 34880 ft | 446 kts | 43° |
| 2026-05-05 20:08 | 33.80491 | -15.22206 | 35146 ft | 445 kts | 43° |
| 2026-05-05 20:08 | 33.82742 | -15.19645 | 35389 ft | 446 kts | 43° |
| 2026-05-05 20:09 | 33.84993 | -15.17082 | 35652 ft | 445 kts | 43° |
| 2026-05-05 20:09 | 33.87240 | -15.14523 | 35932 ft | 444 kts | 43° |
| 2026-05-05 20:09 | 33.89489 | -15.11958 | 35990 ft | 448 kts | 43° |
| 2026-05-05 20:10 | 33.94027 | -15.06778 | 36000 ft | 450 kts | 43° |
| 2026-05-05 20:10 | 33.98533 | -15.01626 | 35985 ft | 443 kts | 43° |
| 2026-05-05 20:11 | 34.02991 | -14.96522 | 36003 ft | 442 kts | 43° |
| 2026-05-05 20:11 | 34.07440 | -14.91419 | 36003 ft | 441 kts | 43° |
| 2026-05-05 20:12 | 34.11888 | -14.86311 | 36001 ft | 442 kts | 43° |
| 2026-05-05 20:12 | 34.16335 | -14.81196 | 36001 ft | 442 kts | 43° |
| 2026-05-05 20:13 | 34.20786 | -14.76068 | 36001 ft | 442 kts | 43° |
| 2026-05-05 20:13 | 34.25241 | -14.70927 | 36001 ft | 443 kts | 43° |
| 2026-05-05 20:14 | 34.29702 | -14.65772 | 36001 ft | 444 kts | 43° |
| 2026-05-05 20:14 | 34.34164 | -14.60607 | 36001 ft | 444 kts | 43° |
| 2026-05-05 20:15 | 34.38631 | -14.55430 | 36000 ft | 445 kts | 44° |
| 2026-05-05 20:15 | 34.43098 | -14.50243 | 36000 ft | 445 kts | 44° |
| 2026-05-05 20:16 | 34.47566 | -14.45048 | 36002 ft | 445 kts | 44° |
| 2026-05-05 20:16 | 34.52037 | -14.39841 | 36000 ft | 445 kts | 44° |
| 2026-05-05 20:17 | 34.56502 | -14.34632 | 36000 ft | 445 kts | 44° |
| 2026-05-05 20:17 | 34.60966 | -14.29417 | 36000 ft | 445 kts | 44° |
| 2026-05-05 20:18 | 34.65426 | -14.24198 | 36000 ft | 445 kts | 44° |
| 2026-05-05 20:18 | 34.69882 | -14.18976 | 36004 ft | 445 kts | 44° |
| 2026-05-05 20:19 | 34.74328 | -14.13757 | 36002 ft | 444 kts | 44° |
| 2026-05-05 20:19 | 34.78773 | -14.08531 | 36000 ft | 444 kts | 44° |
| 2026-05-05 20:20 | 34.83211 | -14.03305 | 36000 ft | 444 kts | 44° |
| 2026-05-05 20:20 | 34.87647 | -13.98073 | 36001 ft | 444 kts | 44° |
| 2026-05-05 20:21 | 34.92075 | -13.92842 | 36000 ft | 443 kts | 44° |
| 2026-05-05 20:21 | 34.96501 | -13.87606 | 36000 ft | 443 kts | 44° |
| 2026-05-05 20:22 | 35.00923 | -13.82365 | 36002 ft | 443 kts | 44° |
| 2026-05-05 20:22 | 35.05341 | -13.77122 | 36000 ft | 443 kts | 44° |
| 2026-05-05 20:23 | 35.09757 | -13.71872 | 36001 ft | 443 kts | 44° |
| 2026-05-05 20:23 | 35.14169 | -13.66618 | 36000 ft | 443 kts | 44° |
| 2026-05-05 20:24 | 35.18582 | -13.61356 | 36000 ft | 443 kts | 44° |
| 2026-05-05 20:24 | 35.22993 | -13.56086 | 36000 ft | 443 kts | 44° |
| 2026-05-05 20:25 | 35.27401 | -13.50812 | 36004 ft | 443 kts | 44° |
| 2026-05-05 20:25 | 35.31808 | -13.45531 | 36000 ft | 443 kts | 44° |
| 2026-05-05 20:26 | 35.36216 | -13.40239 | 36004 ft | 444 kts | 44° |
| 2026-05-05 20:26 | 35.40620 | -13.34945 | 36000 ft | 444 kts | 44° |
| 2026-05-05 20:27 | 35.45025 | -13.29640 | 36002 ft | 444 kts | 44° |
| 2026-05-05 20:27 | 35.49425 | -13.24334 | 36000 ft | 444 kts | 44° |
| 2026-05-05 20:28 | 35.53827 | -13.19016 | 36000 ft | 444 kts | 44° |
| 2026-05-05 20:28 | 35.58224 | -13.13694 | 36000 ft | 444 kts | 44° |
| 2026-05-05 20:29 | 35.62623 | -13.08362 | 36005 ft | 444 kts | 44° |
| 2026-05-05 20:29 | 35.67013 | -13.03032 | 36000 ft | 444 kts | 44° |
| 2026-05-05 20:30 | 35.71406 | -12.97690 | 36003 ft | 444 kts | 44° |
| 2026-05-05 20:30 | 35.75793 | -12.92346 | 36000 ft | 444 kts | 44° |
| 2026-05-05 20:31 | 35.80181 | -12.86993 | 36000 ft | 444 kts | 44° |
| 2026-05-05 20:31 | 35.84560 | -12.81641 | 36002 ft | 444 kts | 44° |
| 2026-05-05 20:32 | 35.88941 | -12.76278 | 36004 ft | 444 kts | 45° |
| 2026-05-05 20:32 | 35.93316 | -12.70913 | 36001 ft | 443 kts | 45° |
| 2026-05-05 20:33 | 35.97688 | -12.65543 | 36000 ft | 443 kts | 45° |
| 2026-05-05 20:33 | 36.02060 | -12.60166 | 36006 ft | 443 kts | 45° |
| 2026-05-05 20:33 | 36.04070 | -12.57288 | 35990 ft | 443 kts | 56° |
| 2026-05-05 20:34 | 36.05603 | -12.53991 | 36010 ft | 443 kts | 65° |
| 2026-05-05 20:34 | 36.06660 | -12.50424 | 35992 ft | 443 kts | 76° |
| 2026-05-05 20:34 | 36.07118 | -12.47964 | 36011 ft | 442 kts | 78° |
| 2026-05-05 20:35 | 36.08368 | -12.40516 | 35999 ft | 443 kts | 78° |
| 2026-05-05 20:35 | 36.09605 | -12.33054 | 36001 ft | 443 kts | 78° |
| 2026-05-05 20:36 | 36.10875 | -12.25595 | 36001 ft | 443 kts | 78° |
| 2026-05-05 20:36 | 36.12161 | -12.18132 | 36004 ft | 444 kts | 78° |
| 2026-05-05 20:37 | 36.13448 | -12.10668 | 36001 ft | 444 kts | 78° |
| 2026-05-05 20:37 | 36.14731 | -12.03199 | 36001 ft | 444 kts | 78° |
| 2026-05-05 20:38 | 36.16010 | -11.95718 | 36001 ft | 444 kts | 78° |
| 2026-05-05 20:38 | 36.17283 | -11.88239 | 36001 ft | 444 kts | 78° |
| 2026-05-05 20:39 | 36.18553 | -11.80752 | 36000 ft | 444 kts | 78° |
| 2026-05-05 20:39 | 36.19817 | -11.73266 | 35999 ft | 444 kts | 78° |
| 2026-05-05 20:40 | 36.21077 | -11.65777 | 36002 ft | 444 kts | 78° |
| 2026-05-05 20:40 | 36.22332 | -11.58289 | 36000 ft | 444 kts | 78° |
| 2026-05-05 20:41 | 36.23581 | -11.50799 | 36004 ft | 444 kts | 78° |
| 2026-05-05 20:41 | 36.24826 | -11.43307 | 35999 ft | 444 kts | 78° |
| 2026-05-05 20:42 | 36.26065 | -11.35821 | 35999 ft | 444 kts | 78° |
| 2026-05-05 20:42 | 36.27301 | -11.28328 | 36001 ft | 444 kts | 78° |
| 2026-05-05 20:43 | 36.28530 | -11.20840 | 36000 ft | 443 kts | 78° |
| 2026-05-05 20:43 | 36.29754 | -11.13353 | 36001 ft | 443 kts | 78° |
| 2026-05-05 20:44 | 36.30973 | -11.05864 | 35999 ft | 443 kts | 78° |
| 2026-05-05 20:44 | 36.32188 | -10.98370 | 36000 ft | 443 kts | 78° |
| 2026-05-05 20:45 | 36.34001 | -10.87133 | 35999 ft | 443 kts | 78° |
| 2026-05-05 20:45 | 36.35204 | -10.79634 | 36001 ft | 443 kts | 78° |
| 2026-05-05 20:46 | 36.36402 | -10.72138 | 35999 ft | 443 kts | 79° |
| 2026-05-05 20:46 | 36.37596 | -10.64634 | 35999 ft | 443 kts | 79° |
| 2026-05-05 20:47 | 36.38784 | -10.57131 | 36001 ft | 443 kts | 79° |
| 2026-05-05 20:47 | 36.39968 | -10.49626 | 36003 ft | 443 kts | 79° |
| 2026-05-05 20:48 | 36.41148 | -10.42115 | 36002 ft | 443 kts | 79° |
| 2026-05-05 20:48 | 36.42325 | -10.34592 | 35686 ft | 446 kts | 79° |
| 2026-05-05 20:49 | 36.42911 | -10.30834 | 35365 ft | 440 kts | 79° |
| 2026-05-05 20:49 | 36.43488 | -10.27121 | 34952 ft | 436 kts | 79° |
| 2026-05-05 20:49 | 36.44060 | -10.23440 | 34561 ft | 432 kts | 79° |
| 2026-05-05 20:49 | 36.44625 | -10.19786 | 34163 ft | 429 kts | 79° |
| 2026-05-05 20:50 | 36.45185 | -10.16165 | 33763 ft | 426 kts | 79° |
| 2026-05-05 20:50 | 36.45740 | -10.12569 | 33371 ft | 422 kts | 79° |
| 2026-05-05 20:50 | 36.46289 | -10.09000 | 32981 ft | 419 kts | 79° |
| 2026-05-05 20:50 | 36.46834 | -10.05451 | 32590 ft | 416 kts | 79° |
| 2026-05-05 20:51 | 36.47375 | -10.01927 | 32200 ft | 414 kts | 79° |
| 2026-05-05 20:51 | 36.47910 | -9.98431 | 31815 ft | 411 kts | 79° |
| 2026-05-05 20:51 | 36.48440 | -9.94954 | 31435 ft | 408 kts | 79° |
| 2026-05-05 20:51 | 36.48966 | -9.91503 | 31061 ft | 405 kts | 79° |
| 2026-05-05 20:52 | 36.49488 | -9.88072 | 30674 ft | 403 kts | 79° |
| 2026-05-05 20:52 | 36.50005 | -9.84662 | 30299 ft | 400 kts | 79° |
| 2026-05-05 20:52 | 36.50519 | -9.81271 | 29925 ft | 398 kts | 79° |
| 2026-05-05 20:52 | 36.51035 | -9.77860 | 29544 ft | 395 kts | 79° |
| 2026-05-05 20:53 | 36.51532 | -9.74563 | 29164 ft | 392 kts | 79° |
| 2026-05-05 20:53 | 36.52032 | -9.71243 | 28775 ft | 390 kts | 79° |
| 2026-05-05 20:53 | 36.52528 | -9.67936 | 28393 ft | 387 kts | 79° |
| 2026-05-05 20:53 | 36.53019 | -9.64663 | 28017 ft | 384 kts | 79° |
| 2026-05-05 20:54 | 36.53506 | -9.61409 | 27632 ft | 382 kts | 79° |
| 2026-05-05 20:54 | 36.53990 | -9.58168 | 27254 ft | 380 kts | 79° |
| 2026-05-05 20:54 | 36.54470 | -9.54953 | 26879 ft | 377 kts | 79° |
| 2026-05-05 20:54 | 36.54953 | -9.51709 | 26499 ft | 375 kts | 79° |
| 2026-05-05 20:55 | 36.55418 | -9.48573 | 26133 ft | 373 kts | 79° |
| 2026-05-05 20:55 | 36.55887 | -9.45414 | 25763 ft | 370 kts | 79° |
| 2026-05-05 20:55 | 36.56351 | -9.42273 | 25394 ft | 368 kts | 79° |
| 2026-05-05 20:55 | 36.56812 | -9.39152 | 25028 ft | 366 kts | 79° |
| 2026-05-05 20:56 | 36.57270 | -9.36045 | 24663 ft | 364 kts | 79° |
| 2026-05-05 20:56 | 36.57724 | -9.32959 | 24295 ft | 362 kts | 79° |
| 2026-05-05 20:56 | 36.58175 | -9.29889 | 23936 ft | 360 kts | 79° |
| 2026-05-05 20:56 | 36.58622 | -9.26840 | 23579 ft | 358 kts | 79° |
| 2026-05-05 20:57 | 36.59067 | -9.23800 | 23219 ft | 356 kts | 79° |
| 2026-05-05 20:57 | 36.59507 | -9.20783 | 22865 ft | 354 kts | 79° |
| 2026-05-05 20:57 | 36.59945 | -9.17781 | 22510 ft | 352 kts | 79° |
| 2026-05-05 20:57 | 36.60379 | -9.14796 | 22157 ft | 350 kts | 79° |
| 2026-05-05 20:58 | 36.60816 | -9.11787 | 21801 ft | 348 kts | 79° |
| 2026-05-05 20:58 | 36.61238 | -9.08874 | 21456 ft | 346 kts | 79° |
| 2026-05-05 20:58 | 36.61669 | -9.05896 | 21103 ft | 344 kts | 79° |
| 2026-05-05 20:58 | 36.62086 | -9.03013 | 20762 ft | 342 kts | 79° |
| 2026-05-05 20:59 | 36.62505 | -9.00105 | 20415 ft | 340 kts | 79° |
| 2026-05-05 20:59 | 36.62921 | -8.97217 | 20072 ft | 339 kts | 79° |
| 2026-05-05 20:59 | 36.63336 | -8.94328 | 19729 ft | 337 kts | 80° |
| 2026-05-05 20:59 | 36.63750 | -8.91438 | 19382 ft | 335 kts | 80° |
| 2026-05-05 21:00 | 36.64158 | -8.88592 | 19045 ft | 333 kts | 80° |
| 2026-05-05 21:00 | 36.64563 | -8.85755 | 18691 ft | 332 kts | 80° |
| 2026-05-05 21:00 | 36.64966 | -8.82931 | 18363 ft | 330 kts | 80° |
| 2026-05-05 21:00 | 36.65366 | -8.80125 | 18015 ft | 328 kts | 80° |
| 2026-05-05 21:01 | 36.65762 | -8.77337 | 17699 ft | 326 kts | 80° |
| 2026-05-05 21:01 | 36.66157 | -8.74557 | 17367 ft | 325 kts | 80° |
| 2026-05-05 21:01 | 36.66548 | -8.71796 | 17037 ft | 323 kts | 80° |
| 2026-05-05 21:01 | 36.66937 | -8.69046 | 16708 ft | 322 kts | 80° |
| 2026-05-05 21:02 | 36.67324 | -8.66302 | 16378 ft | 320 kts | 80° |
| 2026-05-05 21:02 | 36.67708 | -8.63580 | 16054 ft | 318 kts | 80° |
| 2026-05-05 21:02 | 36.68088 | -8.60875 | 15725 ft | 317 kts | 80° |
| 2026-05-05 21:02 | 36.68467 | -8.58178 | 15401 ft | 315 kts | 80° |
| 2026-05-05 21:03 | 36.68843 | -8.55494 | 15077 ft | 314 kts | 80° |
| 2026-05-05 21:03 | 36.69217 | -8.52823 | 14755 ft | 312 kts | 80° |
| 2026-05-05 21:03 | 36.69589 | -8.50162 | 14433 ft | 311 kts | 80° |
| 2026-05-05 21:03 | 36.69958 | -8.47515 | 14112 ft | 309 kts | 80° |
| 2026-05-05 21:04 | 36.70325 | -8.44880 | 13793 ft | 308 kts | 80° |
| 2026-05-05 21:04 | 36.70690 | -8.42259 | 13475 ft | 306 kts | 80° |
| 2026-05-05 21:04 | 36.71052 | -8.39647 | 13158 ft | 305 kts | 80° |
| 2026-05-05 21:04 | 36.71412 | -8.37052 | 12842 ft | 304 kts | 80° |
| 2026-05-05 21:05 | 36.71770 | -8.34464 | 12535 ft | 302 kts | 80° |
| 2026-05-05 21:05 | 36.72126 | -8.31886 | 12212 ft | 301 kts | 80° |
| 2026-05-05 21:05 | 36.72479 | -8.29325 | 11900 ft | 299 kts | 80° |
| 2026-05-05 21:05 | 36.72830 | -8.26772 | 11586 ft | 298 kts | 80° |
| 2026-05-05 21:06 | 36.73180 | -8.24233 | 11275 ft | 297 kts | 80° |
| 2026-05-05 21:06 | 36.73527 | -8.21702 | 10962 ft | 295 kts | 80° |
| 2026-05-05 21:06 | 36.73872 | -8.19184 | 10651 ft | 294 kts | 80° |
| 2026-05-05 21:06 | 36.74214 | -8.16678 | 10347 ft | 293 kts | 80° |
| 2026-05-05 21:07 | 36.74553 | -8.14198 | 10179 ft | 286 kts | 80° |
| 2026-05-05 21:07 | 36.74882 | -8.11789 | 10042 ft | 278 kts | 80° |
| 2026-05-05 21:07 | 36.75204 | -8.09425 | 9802 ft | 276 kts | 80° |
| 2026-05-05 21:07 | 36.75524 | -8.07074 | 9538 ft | 274 kts | 80° |
| 2026-05-05 21:08 | 36.75841 | -8.04736 | 9270 ft | 273 kts | 80° |
| 2026-05-05 21:08 | 36.76156 | -8.02412 | 9000 ft | 271 kts | 80° |
| 2026-05-05 21:08 | 36.76504 | -8.00103 | 8723 ft | 270 kts | 74° |
| 2026-05-05 21:08 | 36.77133 | -7.97903 | 8451 ft | 269 kts | 68° |
| 2026-05-05 21:09 | 36.77860 | -7.95758 | 8176 ft | 268 kts | 66° |
| 2026-05-05 21:09 | 36.78592 | -7.93622 | 7905 ft | 267 kts | 66° |
| 2026-05-05 21:09 | 36.79313 | -7.91493 | 7631 ft | 266 kts | 67° |
| 2026-05-05 21:09 | 36.80024 | -7.89364 | 7362 ft | 265 kts | 67° |
| 2026-05-05 21:10 | 36.80725 | -7.87238 | 7087 ft | 264 kts | 68° |
| 2026-05-05 21:10 | 36.81419 | -7.85119 | 6817 ft | 264 kts | 68° |
| 2026-05-05 21:10 | 36.82109 | -7.82999 | 6521 ft | 264 kts | 68° |
| 2026-05-05 21:10 | 36.82797 | -7.80879 | 6247 ft | 263 kts | 68° |
| 2026-05-05 21:11 | 36.83482 | -7.78765 | 5970 ft | 262 kts | 68° |
| 2026-05-05 21:11 | 36.84163 | -7.76659 | 5700 ft | 261 kts | 68° |
| 2026-05-05 21:11 | 36.84841 | -7.74559 | 5443 ft | 260 kts | 68° |
| 2026-05-05 21:11 | 36.85505 | -7.72498 | 5339 ft | 252 kts | 68° |
| 2026-05-05 21:12 | 36.86168 | -7.70515 | 5249 ft | 245 kts | 62° |
| 2026-05-05 21:12 | 36.87311 | -7.68998 | 5134 ft | 242 kts | 28° |
| 2026-05-05 21:12 | 36.88916 | -7.68375 | 5042 ft | 244 kts | 7° |
| 2026-05-05 21:12 | 36.90038 | -7.68230 | 4973 ft | 245 kts | 4° |
| 2026-05-05 21:13 | 36.91723 | -7.68074 | 4825 ft | 239 kts | 4° |
| 2026-05-05 21:13 | 36.93344 | -7.67922 | 4570 ft | 229 kts | 4° |
| 2026-05-05 21:13 | 36.94896 | -7.67766 | 4327 ft | 219 kts | 4° |
| 2026-05-05 21:13 | 36.96369 | -7.67920 | 4079 ft | 209 kts | 334° |
| 2026-05-05 21:14 | 36.97314 | -7.69141 | 3974 ft | 191 kts | 289° |
| 2026-05-05 21:14 | 36.97663 | -7.70673 | 3943 ft | 183 kts | 285° |
| 2026-05-05 21:14 | 36.97982 | -7.72226 | 3720 ft | 183 kts | 282° |
| 2026-05-05 21:14 | 36.98233 | -7.73768 | 3485 ft | 178 kts | 280° |
| 2026-05-05 21:15 | 36.98451 | -7.75271 | 3255 ft | 173 kts | 280° |
| 2026-05-05 21:15 | 36.98656 | -7.76732 | 3031 ft | 168 kts | 279° |
| 2026-05-05 21:15 | 36.98855 | -7.78156 | 2813 ft | 165 kts | 279° |
| 2026-05-05 21:15 | 36.99051 | -7.79560 | 2601 ft | 161 kts | 279° |
| 2026-05-05 21:16 | 36.99234 | -7.80873 | 2422 ft | 147 kts | 279° |
| 2026-05-05 21:16 | 36.99412 | -7.82143 | 2204 ft | 148 kts | 279° |
| 2026-05-05 21:16 | 36.99587 | -7.83398 | 2003 ft | 146 kts | 279° |
| 2026-05-05 21:16 | 36.99762 | -7.84646 | 1812 ft | 146 kts | 279° |
| 2026-05-05 21:17 | 36.99937 | -7.85894 | 1620 ft | 146 kts | 279° |
| 2026-05-05 21:17 | 37.00112 | -7.87141 | 1425 ft | 145 kts | 279° |
| 2026-05-05 21:17 | 37.00286 | -7.88381 | 1234 ft | 145 kts | 279° |
| 2026-05-05 21:17 | 37.00460 | -7.89618 | 1043 ft | 144 kts | 279° |
| 2026-05-05 21:18 | 37.00633 | -7.90855 | 849 ft | 144 kts | 279° |
| 2026-05-05 21:18 | 37.00803 | -7.92091 | 651 ft | 144 kts | 279° |
| 2026-05-05 21:18 | 37.00971 | -7.93320 | 465 ft | 143 kts | 281° |
| 2026-05-05 21:18 | 37.01155 | -7.94542 | 302 ft | 143 kts | 280° |
| 2026-05-05 21:19 | 37.01327 | -7.95772 | 112 ft | 144 kts | 280° |
| 2026-05-05 21:19 | 37.01503 | -7.96984 | 20 ft | 131 kts | 280° |
| 2026-05-05 21:19 | 37.01626 | -7.97854 | 18 ft | 39 kts | 280° |
| 2026-05-05 21:19 | 37.01676 | -7.98046 | 21 ft | 18 kts | 294° |
| 2026-05-05 21:20 | 37.01741 | -7.98172 | 20 ft | 17 kts | 309° |
| 2026-05-05 21:20 | 37.01826 | -7.98223 | 21 ft | 14 kts | 28° |
| 2026-05-05 21:20 | 37.01843 | -7.98110 | 21 ft | 14 kts | 98° |
| 2026-05-05 21:20 | 37.01828 | -7.97996 | 21 ft | 13 kts | 100° |
| 2026-05-05 21:21 | 37.01812 | -7.97885 | 21 ft | 14 kts | 100° |
| 2026-05-05 21:21 | 37.01792 | -7.97745 | 19 ft | 20 kts | 100° |
| 2026-05-05 21:21 | 37.01766 | -7.97558 | 19 ft | 22 kts | 100° |
| 2026-05-05 21:21 | 37.01737 | -7.97354 | 19 ft | 20 kts | 100° |
| 2026-05-05 21:22 | 37.01710 | -7.97165 | 19 ft | 17 kts | 100° |
| 2026-05-05 21:22 | 37.01685 | -7.96993 | 21 ft | 23 kts | 101° |
| 2026-05-05 21:22 | 37.01659 | -7.96803 | 19 ft | 24 kts | 99° |
| 2026-05-05 21:22 | 37.01635 | -7.96637 | 19 ft | 18 kts | 100° |
| 2026-05-05 21:23 | 37.01661 | -7.96541 | 19 ft | 14 kts | 22° |
| 2026-05-05 21:23 | 37.01756 | -7.96506 | 19 ft | 14 kts | 36° |
| 2026-05-05 21:23 | 37.01767 | -7.96415 | 19 ft | 1 kts | 99° |
| 2026-05-05 21:23 | 37.01769 | -7.96391 | 19 ft | 4 kts | 67° |
| 2026-05-05 21:24 | 37.01802 | -7.96368 | 19 ft | 8 kts | 10° |
| 2026-05-05 21:24 | 37.01833 | -7.96362 | 19 ft | 0 kts | 9° |
| 2026-05-05 21:24 | 37.01843 | -7.96360 | 19 ft | 2 kts | 9° |
| 2026-05-05 21:24 | 37.01847 | -7.96359 | 19 ft | 0 kts | 9° |